This is the latest recevied weather packets stored in our database for station/object SP1BMW-13. If no packets are shown the sender has not sent any weather packets the latest 10 day(s).
| Time | Temp. | Humidity | Pressure | Rain* | Wind** | Luminosity | Snow |
|---|---|---|---|---|---|---|---|
| 1788080796 | 23.33° C | 62% | 1008.1 hPa | 0 mm | 0.89 m/s, 90° | 220 W/m² | - |
| 1788080736 | 23.33° C | 62% | 1007.9 hPa | 0 mm | 0.89 m/s, 235° | 198 W/m² | - |
| 1788080676 | 23.33° C | 61% | 1008.1 hPa | 0 mm | 0.89 m/s, 194° | 188 W/m² | - |
| 1788080625 | 23.33° C | 61% | 1008.1 hPa | 0 mm | 0.89 m/s, 309° | 182 W/m² | - |
| 1788080557 | 23.33° C | 61% | 1008 hPa | 0 mm | 0.89 m/s, 221° | 165 W/m² | - |
| 1788080497 | 23.33° C | 60% | 1008 hPa | 0 mm | 1.34 m/s, 231° | 143 W/m² | - |
| 1788080437 | 23.33° C | 61% | 1008 hPa | 0 mm | 1.79 m/s, 254° | 131 W/m² | - |
| 1788080377 | 23.33° C | 61% | 1008 hPa | 0 mm | 0.45 m/s, 323° | 136 W/m² | - |
| 1788080317 | 23.33° C | 61% | 1007.9 hPa | 0 mm | 0.89 m/s, 162° | 147 W/m² | - |
| 1788080257 | 23.33° C | 62% | 1008 hPa | 0 mm | 0.45 m/s, 219° | 164 W/m² | - |
| 1788080197 | 23.33° C | 61% | 1008 hPa | 0 mm | 0.45 m/s, 326° | 182 W/m² | - |
| 1788080139 | 23.33° C | 60% | 1008.2 hPa | 0 mm | 1.79 m/s, 243° | 201 W/m² | - |
| 1788080078 | 23.33° C | 60% | 1008 hPa | 0 mm | 0.89 m/s, 344° | 239 W/m² | - |
| 1788080020 | 23.33° C | 60% | 1008.2 hPa | 0 mm | 0.45 m/s, 37° | 238 W/m² | - |
| 1788079957 | 23.33° C | 60% | 1008.1 hPa | 0 mm | 0.45 m/s, 339° | 213 W/m² | - |
| 1788079897 | 23.33° C | 59% | 1008.3 hPa | 0 mm | 0.45 m/s, 33° | 189 W/m² | - |
| 1788079837 | 23.33° C | 59% | 1008.2 hPa | 0 mm | 2.24 m/s, 216° | 181 W/m² | - |
| 1788079779 | 23.89° C | 60% | 1008.2 hPa | 0 mm | 1.34 m/s, 133° | 185 W/m² | - |
| 1788079717 | 23.89° C | 60% | 1008 hPa | 0 mm | 1.34 m/s, 276° | 203 W/m² | - |
| 1788079657 | 23.89° C | 60% | 1007.9 hPa | 0 mm | 1.34 m/s, 242° | 232 W/m² | - |
| 1788079597 | 23.89° C | 60% | 1008 hPa | 0 mm | 0.89 m/s, 40° | 255 W/m² | - |
| 1788079537 | 23.89° C | 59% | 1008 hPa | 0 mm | 1.79 m/s, 275° | 267 W/m² | - |
| 1788079477 | 23.89° C | 59% | 1008 hPa | 0 mm | 0.45 m/s, 123° | 220 W/m² | - |
| 1788079422 | 24.44° C | 59% | 1008 hPa | 0 mm | 2.24 m/s, 124° | 199 W/m² | - |
| 1788079359 | 24.44° C | 59% | 1008.2 hPa | 0 mm | 1.34 m/s, 224° | 169 W/m² | - |
* Rain latest hour (hover to see other rain measurements)
** Current wind speed in m/s (hover to see current wind gust speed)